sensor_id;sensor_type;location;lat;lon;timestamp;pressure;altitude;pressure_sealevel;temperature;humidity
12182;BME280;6154;51.550;12.138;2023-06-14T00:00:06;100547.50;;;18.46;45.57
12182;BME280;6154;51.550;12.138;2023-06-14T00:02:35;100533.25;;;18.45;44.99
12182;BME280;6154;51.550;12.138;2023-06-14T00:05:04;100540.12;;;18.38;45.23
12182;BME280;6154;51.550;12.138;2023-06-14T00:07:36;100536.13;;;18.32;45.48
12182;BME280;6154;51.550;12.138;2023-06-14T00:10:08;100533.13;;;18.26;46.57
12182;BME280;6154;51.550;12.138;2023-06-14T00:12:36;100536.31;;;18.20;46.69
12182;BME280;6154;51.550;12.138;2023-06-14T00:15:06;100546.78;;;18.23;45.87
12182;BME280;6154;51.550;12.138;2023-06-14T00:17:36;100528.63;;;18.26;44.89
12182;BME280;6154;51.550;12.138;2023-06-14T00:20:07;100544.94;;;18.23;45.53
12182;BME280;6154;51.550;12.138;2023-06-14T00:22:36;100538.37;;;18.27;45.48
12182;BME280;6154;51.550;12.138;2023-06-14T00:25:07;100543.91;;;18.15;45.24
12182;BME280;6154;51.550;12.138;2023-06-14T00:27:55;100545.28;;;18.09;46.76
12182;BME280;6154;51.550;12.138;2023-06-14T00:30:25;100539.47;;;18.04;45.72
12182;BME280;6154;51.550;12.138;2023-06-14T00:32:58;100544.00;;;17.92;46.63
12182;BME280;6154;51.550;12.138;2023-06-14T00:35:26;100540.88;;;17.87;46.18
12182;BME280;6154;51.550;12.138;2023-06-14T00:37:54;100535.19;;;17.80;46.80
12182;BME280;6154;51.550;12.138;2023-06-14T00:40:24;100537.12;;;17.78;46.65
12182;BME280;6154;51.550;12.138;2023-06-14T00:42:52;100534.72;;;17.75;47.96
12182;BME280;6154;51.550;12.138;2023-06-14T00:45:21;100530.09;;;17.66;47.77
12182;BME280;6154;51.550;12.138;2023-06-14T00:47:50;100529.88;;;17.69;47.36
12182;BME280;6154;51.550;12.138;2023-06-14T00:50:20;100535.94;;;17.71;46.94
12182;BME280;6154;51.550;12.138;2023-06-14T00:52:48;100534.12;;;17.61;48.24
12182;BME280;6154;51.550;12.138;2023-06-14T00:55:17;100542.28;;;17.59;47.69
12182;BME280;6154;51.550;12.138;2023-06-14T00:57:47;100540.19;;;17.63;47.22
12182;BME280;6154;51.550;12.138;2023-06-14T01:00:16;100539.38;;;17.51;48.25
12182;BME280;6154;51.550;12.138;2023-06-14T01:03:03;100538.41;;;17.52;47.68
12182;BME280;6154;51.550;12.138;2023-06-14T01:05:55;100543.56;;;17.44;48.25
12182;BME280;6154;51.550;12.138;2023-06-14T01:08:44;100547.72;;;17.37;49.14
12182;BME280;6154;51.550;12.138;2023-06-14T01:11:18;100549.88;;;17.43;52.58
12182;BME280;6154;51.550;12.138;2023-06-14T01:13:51;100555.34;;;17.41;49.02
12182;BME280;6154;51.550;12.138;2023-06-14T01:16:21;100553.16;;;17.46;48.79
12182;BME280;6154;51.550;12.138;2023-06-14T01:18:51;100548.78;;;17.45;48.10
12182;BME280;6154;51.550;12.138;2023-06-14T01:21:24;100552.78;;;17.40;49.16
12182;BME280;6154;51.550;12.138;2023-06-14T01:23:54;100554.50;;;17.41;48.65
12182;BME280;6154;51.550;12.138;2023-06-14T01:26:24;100549.41;;;17.38;48.94
12182;BME280;6154;51.550;12.138;2023-06-14T01:28:59;100560.59;;;17.32;50.03
12182;BME280;6154;51.550;12.138;2023-06-14T01:31:27;100550.16;;;17.29;49.33
12182;BME280;6154;51.550;12.138;2023-06-14T01:33:56;100534.81;;;17.31;49.61
12182;BME280;6154;51.550;12.138;2023-06-14T01:36:27;100545.66;;;17.29;48.26
12182;BME280;6154;51.550;12.138;2023-06-14T01:38:58;100545.91;;;17.26;50.05
12182;BME280;6154;51.550;12.138;2023-06-14T01:41:28;100541.87;;;17.32;47.90
12182;BME280;6154;51.550;12.138;2023-06-14T01:43:58;100538.69;;;17.38;47.47
12182;BME280;6154;51.550;12.138;2023-06-14T01:46:26;100534.78;;;17.42;47.86
12182;BME280;6154;51.550;12.138;2023-06-14T01:48:54;100538.09;;;17.45;47.62
12182;BME280;6154;51.550;12.138;2023-06-14T01:51:23;100529.66;;;17.50;46.83
12182;BME280;6154;51.550;12.138;2023-06-14T01:53:51;100529.53;;;17.51;46.78
12182;BME280;6154;51.550;12.138;2023-06-14T01:56:20;100530.16;;;17.55;46.60
12182;BME280;6154;51.550;12.138;2023-06-14T01:58:48;100534.66;;;17.55;46.86
12182;BME280;6154;51.550;12.138;2023-06-14T02:01:17;100538.03;;;17.57;46.49
12182;BME280;6154;51.550;12.138;2023-06-14T02:03:46;100539.75;;;17.58;47.11
12182;BME280;6154;51.550;12.138;2023-06-14T02:06:15;100539.75;;;17.58;46.45
12182;BME280;6154;51.550;12.138;2023-06-14T02:08:43;100533.69;;;17.56;46.65
12182;BME280;6154;51.550;12.138;2023-06-14T02:11:11;100545.59;;;17.51;47.35
12182;BME280;6154;51.550;12.138;2023-06-14T02:13:41;100546.44;;;17.52;47.02
12182;BME280;6154;51.550;12.138;2023-06-14T02:16:09;100548.66;;;17.47;47.58
12182;BME280;6154;51.550;12.138;2023-06-14T02:18:37;100556.44;;;17.39;48.76
12182;BME280;6154;51.550;12.138;2023-06-14T02:21:06;100555.25;;;17.32;49.18
12182;BME280;6154;51.550;12.138;2023-06-14T02:23:34;100553.81;;;17.16;49.04
12182;BME280;6154;51.550;12.138;2023-06-14T02:26:02;100552.72;;;17.08;49.18
12182;BME280;6154;51.550;12.138;2023-06-14T02:28:33;100554.31;;;16.99;49.74
12182;BME280;6154;51.550;12.138;2023-06-14T02:31:03;100556.28;;;16.97;49.61
12182;BME280;6154;51.550;12.138;2023-06-14T02:33:32;100549.44;;;16.93;49.31
12182;BME280;6154;51.550;12.138;2023-06-14T02:36:01;100556.03;;;16.89;49.53
12182;BME280;6154;51.550;12.138;2023-06-14T02:38:29;100567.94;;;16.85;49.30
12182;BME280;6154;51.550;12.138;2023-06-14T02:40:58;100561.12;;;16.81;49.26
12182;BME280;6154;51.550;12.138;2023-06-14T02:43:28;100564.50;;;16.83;48.94
12182;BME280;6154;51.550;12.138;2023-06-14T02:45:58;100567.09;;;16.84;48.94
12182;BME280;6154;51.550;12.138;2023-06-14T02:48:27;100564.28;;;16.86;49.02
12182;BME280;6154;51.550;12.138;2023-06-14T02:50:55;100564.16;;;16.87;48.92
12182;BME280;6154;51.550;12.138;2023-06-14T02:53:24;100558.09;;;16.85;49.00
12182;BME280;6154;51.550;12.138;2023-06-14T02:55:53;100570.50;;;16.86;48.94
12182;BME280;6154;51.550;12.138;2023-06-14T02:58:22;100567.94;;;16.85;48.76
12182;BME280;6154;51.550;12.138;2023-06-14T03:00:52;100574.00;;;16.87;48.31
12182;BME280;6154;51.550;12.138;2023-06-14T03:03:20;100571.34;;;16.87;48.38
12182;BME280;6154;51.550;12.138;2023-06-14T03:05:53;100577.53;;;16.87;48.40
12182;BME280;6154;51.550;12.138;2023-06-14T03:08:22;100573.03;;;16.88;48.12
12182;BME280;6154;51.550;12.138;2023-06-14T03:10:54;100577.53;;;16.87;48.71
12182;BME280;6154;51.550;12.138;2023-06-14T03:13:23;100570.97;;;16.80;49.88
12182;BME280;6154;51.550;12.138;2023-06-14T03:15:51;100577.88;;;16.83;49.21
12182;BME280;6154;51.550;12.138;2023-06-14T03:18:20;100573.63;;;16.80;48.90
12182;BME280;6154;51.550;12.138;2023-06-14T03:20:55;100584.56;;;16.77;48.90
12182;BME280;6154;51.550;12.138;2023-06-14T03:23:25;100575.31;;;16.70;49.50
12182;BME280;6154;51.550;12.138;2023-06-14T03:25:54;100578.06;;;16.57;49.97
12182;BME280;6154;51.550;12.138;2023-06-14T03:28:23;100576.34;;;16.45;50.10
12182;BME280;6154;51.550;12.138;2023-06-14T03:30:52;100574.97;;;16.28;51.46
12182;BME280;6154;51.550;12.138;2023-06-14T03:33:21;100575.22;;;16.25;50.93
12182;BME280;6154;51.550;12.138;2023-06-14T03:35:49;100571.44;;;16.17;51.33
12182;BME280;6154;51.550;12.138;2023-06-14T03:38:19;100579.03;;;16.10;51.34
12182;BME280;6154;51.550;12.138;2023-06-14T03:40:48;100589.59;;;16.12;52.19
12182;BME280;6154;51.550;12.138;2023-06-14T03:43:16;100589.16;;;16.18;51.09
12182;BME280;6154;51.550;12.138;2023-06-14T03:45:44;100588.22;;;16.30;50.68
12182;BME280;6154;51.550;12.138;2023-06-14T03:48:13;100592.84;;;16.39;50.78
12182;BME280;6154;51.550;12.138;2023-06-14T03:50:42;100590.69;;;16.44;50.94
12182;BME280;6154;51.550;12.138;2023-06-14T03:53:11;100600.88;;;16.50;51.20
12182;BME280;6154;51.550;12.138;2023-06-14T03:55:41;100602.38;;;16.54;51.54
12182;BME280;6154;51.550;12.138;2023-06-14T03:58:12;100606.25;;;16.61;51.91
12182;BME280;6154;51.550;12.138;2023-06-14T04:00:41;100600.78;;;16.63;52.31
12182;BME280;6154;51.550;12.138;2023-06-14T04:03:10;100611.03;;;16.69;52.41
12182;BME280;6154;51.550;12.138;2023-06-14T04:05:40;100619.31;;;16.77;52.43
12182;BME280;6154;51.550;12.138;2023-06-14T04:08:09;100612.63;;;16.83;52.31
12182;BME280;6154;51.550;12.138;2023-06-14T04:10:37;100617.16;;;16.93;51.88
12182;BME280;6154;51.550;12.138;2023-06-14T04:13:07;100627.97;;;17.03;51.87
12182;BME280;6154;51.550;12.138;2023-06-14T04:15:35;100630.28;;;17.08;52.27
12182;BME280;6154;51.550;12.138;2023-06-14T04:18:04;100631.62;;;17.24;50.76
12182;BME280;6154;51.550;12.138;2023-06-14T04:20:32;100628.94;;;17.36;50.43
12182;BME280;6154;51.550;12.138;2023-06-14T04:23:14;100628.94;;;17.47;50.61
12182;BME280;6154;51.550;12.138;2023-06-14T04:25:45;100626.50;;;17.55;54.68
12182;BME280;6154;51.550;12.138;2023-06-14T04:28:16;100628.66;;;17.61;51.30
12182;BME280;6154;51.550;12.138;2023-06-14T04:30:45;100636.69;;;17.61;52.61
12182;BME280;6154;51.550;12.138;2023-06-14T04:33:15;100643.38;;;17.67;52.15
12182;BME280;6154;51.550;12.138;2023-06-14T04:35:45;100635.72;;;17.73;52.26
12182;BME280;6154;51.550;12.138;2023-06-14T04:38:15;100635.81;;;17.83;51.98
12182;BME280;6154;51.550;12.138;2023-06-14T04:40:43;100643.63;;;17.86;53.12
12182;BME280;6154;51.550;12.138;2023-06-14T04:43:13;100644.44;;;17.98;53.10
12182;BME280;6154;51.550;12.138;2023-06-14T04:45:45;100641.25;;;18.04;52.09
12182;BME280;6154;51.550;12.138;2023-06-14T04:48:14;100638.91;;;18.10;53.52
12182;BME280;6154;51.550;12.138;2023-06-14T04:50:45;100639.31;;;18.27;51.43
12182;BME280;6154;51.550;12.138;2023-06-14T04:53:13;100639.41;;;18.36;51.22
12182;BME280;6154;51.550;12.138;2023-06-14T04:55:41;100646.41;;;18.49;50.89
12182;BME280;6154;51.550;12.138;2023-06-14T04:58:12;100643.53;;;18.61;50.31
12182;BME280;6154;51.550;12.138;2023-06-14T05:00:40;100641.06;;;18.70;50.91
12182;BME280;6154;51.550;12.138;2023-06-14T05:03:11;100638.94;;;18.84;50.21
12182;BME280;6154;51.550;12.138;2023-06-14T05:05:41;100650.09;;;18.89;51.00
12182;BME280;6154;51.550;12.138;2023-06-14T05:08:09;100647.31;;;19.01;50.99
12182;BME280;6154;51.550;12.138;2023-06-14T05:10:37;100650.78;;;19.12;50.58
12182;BME280;6154;51.550;12.138;2023-06-14T05:13:06;100644.75;;;19.20;50.53
12182;BME280;6154;51.550;12.138;2023-06-14T05:15:34;100643.09;;;19.29;51.04
12182;BME280;6154;51.550;12.138;2023-06-14T05:18:03;100645.91;;;19.27;51.78
12182;BME280;6154;51.550;12.138;2023-06-14T05:20:33;100643.28;;;19.37;51.29
12182;BME280;6154;51.550;12.138;2023-06-14T05:23:01;100649.19;;;19.40;52.75
12182;BME280;6154;51.550;12.138;2023-06-14T05:25:29;100642.09;;;19.60;50.69
12182;BME280;6154;51.550;12.138;2023-06-14T05:27:58;100645.97;;;19.77;49.92
12182;BME280;6154;51.550;12.138;2023-06-14T05:30:26;100647.22;;;19.83;51.92
12182;BME280;6154;51.550;12.138;2023-06-14T05:32:56;100640.87;;;19.93;49.92
12182;BME280;6154;51.550;12.138;2023-06-14T05:35:24;100642.19;;;20.08;49.67
12182;BME280;6154;51.550;12.138;2023-06-14T05:37:55;100638.38;;;20.21;49.43
12182;BME280;6154;51.550;12.138;2023-06-14T05:40:23;100640.50;;;20.27;49.58
12182;BME280;6154;51.550;12.138;2023-06-14T05:42:51;100645.88;;;20.27;50.31
12182;BME280;6154;51.550;12.138;2023-06-14T05:45:19;100647.88;;;20.44;49.13
12182;BME280;6154;51.550;12.138;2023-06-14T05:47:48;100648.59;;;20.46;49.21
12182;BME280;6154;51.550;12.138;2023-06-14T05:50:17;100650.84;;;20.60;48.56
12182;BME280;6154;51.550;12.138;2023-06-14T05:52:45;100654.06;;;20.74;48.33
12182;BME280;6154;51.550;12.138;2023-06-14T05:55:16;100645.28;;;20.81;48.61
12182;BME280;6154;51.550;12.138;2023-06-14T05:57:45;100651.06;;;20.96;49.13
12182;BME280;6154;51.550;12.138;2023-06-14T06:00:16;100653.16;;;20.92;48.23
12182;BME280;6154;51.550;12.138;2023-06-14T06:02:45;100650.00;;;21.16;47.63
12182;BME280;6154;51.550;12.138;2023-06-14T06:05:14;100653.38;;;21.18;48.46
12182;BME280;6154;51.550;12.138;2023-06-14T06:07:43;100655.56;;;21.42;47.09
12182;BME280;6154;51.550;12.138;2023-06-14T06:10:13;100655.34;;;21.36;47.79
12182;BME280;6154;51.550;12.138;2023-06-14T06:12:44;100663.81;;;21.41;47.26
12182;BME280;6154;51.550;12.138;2023-06-14T06:15:15;100665.09;;;21.64;46.75
12182;BME280;6154;51.550;12.138;2023-06-14T06:17:44;100664.53;;;21.70;46.97
12182;BME280;6154;51.550;12.138;2023-06-14T06:20:22;100664.41;;;21.90;46.35
12182;BME280;6154;51.550;12.138;2023-06-14T06:22:55;100667.78;;;21.92;47.14
12182;BME280;6154;51.550;12.138;2023-06-14T06:25:25;100664.88;;;22.03;46.30
12182;BME280;6154;51.550;12.138;2023-06-14T06:27:55;100675.19;;;22.17;46.05
12182;BME280;6154;51.550;12.138;2023-06-14T06:30:24;100681.63;;;22.24;46.26
12182;BME280;6154;51.550;12.138;2023-06-14T06:32:52;100677.00;;;22.34;46.17
12182;BME280;6154;51.550;12.138;2023-06-14T06:35:23;100673.09;;;22.47;45.85
12182;BME280;6154;51.550;12.138;2023-06-14T06:37:51;100682.56;;;22.69;45.69
12182;BME280;6154;51.550;12.138;2023-06-14T06:40:19;100690.41;;;22.80;45.66
12182;BME280;6154;51.550;12.138;2023-06-14T06:42:48;100692.25;;;22.97;45.23
12182;BME280;6154;51.550;12.138;2023-06-14T06:45:19;100691.59;;;23.03;44.96
12182;BME280;6154;51.550;12.138;2023-06-14T06:47:50;100692.56;;;23.20;44.85
12182;BME280;6154;51.550;12.138;2023-06-14T06:50:19;100701.69;;;23.19;44.98
12182;BME280;6154;51.550;12.138;2023-06-14T06:52:50;100698.81;;;23.46;44.53
12182;BME280;6154;51.550;12.138;2023-06-14T06:55:19;100689.94;;;23.62;44.35
12182;BME280;6154;51.550;12.138;2023-06-14T06:57:57;100692.91;;;23.51;44.27
12182;BME280;6154;51.550;12.138;2023-06-14T07:00:28;100694.03;;;23.40;44.53
12182;BME280;6154;51.550;12.138;2023-06-14T07:02:56;100689.47;;;23.67;43.96
12182;BME280;6154;51.550;12.138;2023-06-14T07:05:24;100694.03;;;23.74;43.67
12182;BME280;6154;51.550;12.138;2023-06-14T07:07:52;100703.75;;;23.93;43.45
12182;BME280;6154;51.550;12.138;2023-06-14T07:10:24;100694.81;;;24.01;43.37
12182;BME280;6154;51.550;12.138;2023-06-14T07:12:52;100702.78;;;24.11;43.24
12182;BME280;6154;51.550;12.138;2023-06-14T07:15:21;100713.59;;;24.11;43.18
12182;BME280;6154;51.550;12.138;2023-06-14T07:17:50;100703.84;;;24.26;43.41
12182;BME280;6154;51.550;12.138;2023-06-14T07:20:20;100705.41;;;24.53;42.78
12182;BME280;6154;51.550;12.138;2023-06-14T07:22:49;100702.91;;;24.76;42.50
12182;BME280;6154;51.550;12.138;2023-06-14T07:25:17;100704.91;;;24.90;42.32
12182;BME280;6154;51.550;12.138;2023-06-14T07:27:47;100705.94;;;24.97;42.16
12182;BME280;6154;51.550;12.138;2023-06-14T07:30:15;100706.78;;;24.98;41.92
12182;BME280;6154;51.550;12.138;2023-06-14T07:32:43;100708.63;;;25.13;42.05
12182;BME280;6154;51.550;12.138;2023-06-14T07:35:13;100712.88;;;25.16;41.61
12182;BME280;6154;51.550;12.138;2023-06-14T07:37:41;100708.31;;;25.16;41.64
12182;BME280;6154;51.550;12.138;2023-06-14T07:40:10;100706.25;;;25.27;41.80
12182;BME280;6154;51.550;12.138;2023-06-14T07:42:39;100708.97;;;25.27;41.93
12182;BME280;6154;51.550;12.138;2023-06-14T07:45:08;100707.78;;;25.29;41.75
12182;BME280;6154;51.550;12.138;2023-06-14T07:47:37;100706.81;;;25.61;41.25
12182;BME280;6154;51.550;12.138;2023-06-14T07:50:05;100712.81;;;25.96;41.09
12182;BME280;6154;51.550;12.138;2023-06-14T07:52:35;100705.84;;;26.24;40.78
12182;BME280;6154;51.550;12.138;2023-06-14T07:55:04;100709.72;;;26.30;40.47
12182;BME280;6154;51.550;12.138;2023-06-14T07:57:33;100712.47;;;26.53;40.31
12182;BME280;6154;51.550;12.138;2023-06-14T08:00:03;100709.41;;;26.56;40.24
12182;BME280;6154;51.550;12.138;2023-06-14T08:02:38;100714.69;;;26.72;40.02
12182;BME280;6154;51.550;12.138;2023-06-14T08:05:07;100706.88;;;26.77;39.94
12182;BME280;6154;51.550;12.138;2023-06-14T08:07:37;100708.25;;;26.73;39.77
12182;BME280;6154;51.550;12.138;2023-06-14T08:10:06;100711.91;;;26.80;39.30
12182;BME280;6154;51.550;12.138;2023-06-14T08:12:34;100713.81;;;26.94;39.54
12182;BME280;6154;51.550;12.138;2023-06-14T08:15:03;100707.25;;;27.12;39.60
12182;BME280;6154;51.550;12.138;2023-06-14T08:17:34;100704.63;;;26.96;39.08
12182;BME280;6154;51.550;12.138;2023-06-14T08:20:03;100711.75;;;26.59;38.90
12182;BME280;6154;51.550;12.138;2023-06-14T08:22:33;100717.84;;;26.38;38.48
12182;BME280;6154;51.550;12.138;2023-06-14T08:25:05;100712.13;;;26.56;39.07
12182;BME280;6154;51.550;12.138;2023-06-14T08:27:33;100702.63;;;26.75;38.52
12182;BME280;6154;51.550;12.138;2023-06-14T08:30:02;100715.16;;;26.99;38.96
12182;BME280;6154;51.550;12.138;2023-06-14T08:32:30;100709.41;;;27.16;38.53
12182;BME280;6154;51.550;12.138;2023-06-14T08:34:59;100716.03;;;27.14;37.70
12182;BME280;6154;51.550;12.138;2023-06-14T08:37:32;100712.97;;;27.17;38.56
12182;BME280;6154;51.550;12.138;2023-06-14T08:40:00;100705.84;;;27.45;38.35
12182;BME280;6154;51.550;12.138;2023-06-14T08:42:36;100701.37;;;27.38;38.37
12182;BME280;6154;51.550;12.138;2023-06-14T08:45:06;100708.75;;;27.29;37.32
12182;BME280;6154;51.550;12.138;2023-06-14T08:47:34;100704.16;;;27.44;38.13
12182;BME280;6154;51.550;12.138;2023-06-14T08:50:09;100701.84;;;27.71;37.82
12182;BME280;6154;51.550;12.138;2023-06-14T08:52:55;100702.69;;;27.57;37.12
12182;BME280;6154;51.550;12.138;2023-06-14T08:55:24;100694.97;;;27.75;36.95
12182;BME280;6154;51.550;12.138;2023-06-14T08:57:57;100698.88;;;28.02;37.83
12182;BME280;6154;51.550;12.138;2023-06-14T09:00:27;100697.34;;;28.29;36.53
12182;BME280;6154;51.550;12.138;2023-06-14T09:02:55;100693.78;;;28.14;36.88
12182;BME280;6154;51.550;12.138;2023-06-14T09:05:26;100700.63;;;28.46;36.73
12182;BME280;6154;51.550;12.138;2023-06-14T09:07:55;100705.00;;;28.25;36.12
12182;BME280;6154;51.550;12.138;2023-06-14T09:10:32;100703.62;;;28.29;35.85
12182;BME280;6154;51.550;12.138;2023-06-14T09:13:04;100703.31;;;28.39;36.20
12182;BME280;6154;51.550;12.138;2023-06-14T09:15:32;100709.91;;;28.51;36.56
12182;BME280;6154;51.550;12.138;2023-06-14T09:18:01;100698.88;;;28.81;36.36
12182;BME280;6154;51.550;12.138;2023-06-14T09:20:30;100704.72;;;28.99;36.23
12182;BME280;6154;51.550;12.138;2023-06-14T09:22:58;100706.25;;;29.08;35.02
12182;BME280;6154;51.550;12.138;2023-06-14T09:25:27;100709.84;;;29.15;36.22
12182;BME280;6154;51.550;12.138;2023-06-14T09:28:08;100707.78;;;28.89;34.67
12182;BME280;6154;51.550;12.138;2023-06-14T09:30:36;100713.03;;;29.47;35.70
12182;BME280;6154;51.550;12.138;2023-06-14T09:33:05;100721.37;;;29.39;33.95
12182;BME280;6154;51.550;12.138;2023-06-14T09:35:34;100718.37;;;29.34;34.55
12182;BME280;6154;51.550;12.138;2023-06-14T09:38:03;100712.78;;;29.14;34.74
12182;BME280;6154;51.550;12.138;2023-06-14T09:40:34;100719.56;;;29.25;35.29
12182;BME280;6154;51.550;12.138;2023-06-14T09:43:05;100709.72;;;28.96;33.37
12182;BME280;6154;51.550;12.138;2023-06-14T09:45:37;100713.28;;;29.24;34.54
12182;BME280;6154;51.550;12.138;2023-06-14T09:48:07;100704.66;;;29.20;35.05
12182;BME280;6154;51.550;12.138;2023-06-14T09:50:37;100700.69;;;29.51;35.10
12182;BME280;6154;51.550;12.138;2023-06-14T09:53:07;100698.09;;;29.43;35.36
12182;BME280;6154;51.550;12.138;2023-06-14T09:55:37;100702.34;;;29.87;34.30
12182;BME280;6154;51.550;12.138;2023-06-14T09:58:07;100704.06;;;30.01;34.41
12182;BME280;6154;51.550;12.138;2023-06-14T10:00:38;100701.06;;;29.83;34.06
12182;BME280;6154;51.550;12.138;2023-06-14T10:03:12;100696.50;;;29.55;33.54
12182;BME280;6154;51.550;12.138;2023-06-14T10:05:43;100692.44;;;29.86;32.68
12182;BME280;6154;51.550;12.138;2023-06-14T10:08:14;100699.16;;;29.76;33.08
12182;BME280;6154;51.550;12.138;2023-06-14T10:10:44;100706.75;;;30.55;34.17
12182;BME280;6154;51.550;12.138;2023-06-14T10:13:13;100705.53;;;30.84;33.93
12182;BME280;6154;51.550;12.138;2023-06-14T10:15:51;100696.28;;;31.12;34.20
12182;BME280;6154;51.550;12.138;2023-06-14T10:18:33;100701.56;;;31.07;31.99
12182;BME280;6154;51.550;12.138;2023-06-14T10:21:05;100701.75;;;30.72;31.88
12182;BME280;6154;51.550;12.138;2023-06-14T10:23:40;100704.28;;;30.80;33.37
12182;BME280;6154;51.550;12.138;2023-06-14T10:26:18;100688.28;;;31.04;33.67
12182;BME280;6154;51.550;12.138;2023-06-14T10:28:56;100710.16;;;31.30;31.61
12182;BME280;6154;51.550;12.138;2023-06-14T10:31:43;100702.41;;;31.27;30.71
12182;BME280;6154;51.550;12.138;2023-06-14T10:34:21;100695.03;;;30.81;31.56
12182;BME280;6154;51.550;12.138;2023-06-14T10:37:02;100698.16;;;30.65;32.37
12182;BME280;6154;51.550;12.138;2023-06-14T10:39:31;100696.44;;;30.44;32.25
12182;BME280;6154;51.550;12.138;2023-06-14T10:42:01;100699.19;;;30.51;34.06
12182;BME280;6154;51.550;12.138;2023-06-14T10:44:49;100692.03;;;30.56;34.14
12182;BME280;6154;51.550;12.138;2023-06-14T10:47:24;100696.72;;;30.82;32.15
12182;BME280;6154;51.550;12.138;2023-06-14T10:49:54;100694.16;;;31.14;32.31
12182;BME280;6154;51.550;12.138;2023-06-14T10:52:24;100685.31;;;31.12;33.76
12182;BME280;6154;51.550;12.138;2023-06-14T10:54:58;100674.78;;;31.15;32.20
12182;BME280;6154;51.550;12.138;2023-06-14T10:57:27;100692.50;;;30.80;33.65
12182;BME280;6154;51.550;12.138;2023-06-14T10:59:58;100684.69;;;30.50;34.13
12182;BME280;6154;51.550;12.138;2023-06-14T11:05:48;100685.91;;;30.34;32.89
12182;BME280;6154;51.550;12.138;2023-06-14T11:08:51;100684.31;;;30.05;32.96
12182;BME280;6154;51.550;12.138;2023-06-14T11:11:30;100690.97;;;29.76;33.89
12182;BME280;6154;51.550;12.138;2023-06-14T11:13:59;100689.72;;;29.79;34.08
12182;BME280;6154;51.550;12.138;2023-06-14T11:16:28;100679.97;;;30.11;34.79
12182;BME280;6154;51.550;12.138;2023-06-14T11:19:00;100685.28;;;30.32;34.65
12182;BME280;6154;51.550;12.138;2023-06-14T11:21:33;100682.09;;;30.22;33.71
12182;BME280;6154;51.550;12.138;2023-06-14T11:24:01;100686.84;;;30.00;34.15
12182;BME280;6154;51.550;12.138;2023-06-14T11:26:30;100675.41;;;29.70;34.47
12182;BME280;6154;51.550;12.138;2023-06-14T11:29:01;100677.75;;;29.45;34.97
12182;BME280;6154;51.550;12.138;2023-06-14T11:31:29;100682.13;;;29.74;35.16
12182;BME280;6154;51.550;12.138;2023-06-14T11:33:59;100669.91;;;30.18;34.80
12182;BME280;6154;51.550;12.138;2023-06-14T11:36:28;100677.53;;;30.56;34.30
12182;BME280;6154;51.550;12.138;2023-06-14T11:39:00;100659.72;;;30.67;34.03
12182;BME280;6154;51.550;12.138;2023-06-14T11:41:37;100658.88;;;30.79;33.57
12182;BME280;6154;51.550;12.138;2023-06-14T11:44:05;100658.38;;;31.35;33.13
12182;BME280;6154;51.550;12.138;2023-06-14T11:46:34;100646.59;;;31.86;33.81
12182;BME280;6154;51.550;12.138;2023-06-14T11:49:03;100647.53;;;32.12;33.21
12182;BME280;6154;51.550;12.138;2023-06-14T11:51:35;100646.91;;;32.10;32.93
12182;BME280;6154;51.550;12.138;2023-06-14T11:54:06;100655.62;;;32.38;33.03
12182;BME280;6154;51.550;12.138;2023-06-14T11:56:36;100649.44;;;32.11;31.40
12182;BME280;6154;51.550;12.138;2023-06-14T11:59:04;100641.25;;;32.04;32.69
12182;BME280;6154;51.550;12.138;2023-06-14T12:01:36;100640.87;;;31.94;33.20
12182;BME280;6154;51.550;12.138;2023-06-14T12:04:06;100639.88;;;31.89;32.67
12182;BME280;6154;51.550;12.138;2023-06-14T12:06:35;100646.56;;;31.41;33.32
12182;BME280;6154;51.550;12.138;2023-06-14T12:09:08;100651.66;;;31.38;33.69
12182;BME280;6154;51.550;12.138;2023-06-14T12:11:40;100655.44;;;31.24;33.75
12182;BME280;6154;51.550;12.138;2023-06-14T12:14:09;100655.44;;;31.30;32.89
12182;BME280;6154;51.550;12.138;2023-06-14T12:16:38;100635.56;;;31.55;33.40
12182;BME280;6154;51.550;12.138;2023-06-14T12:19:11;100646.66;;;31.80;33.78
12182;BME280;6154;51.550;12.138;2023-06-14T12:21:40;100647.72;;;31.79;33.47
12182;BME280;6154;51.550;12.138;2023-06-14T12:24:15;100642.62;;;31.82;33.49
12182;BME280;6154;51.550;12.138;2023-06-14T12:26:43;100647.19;;;31.43;33.11
12182;BME280;6154;51.550;12.138;2023-06-14T12:29:12;100644.50;;;31.37;33.52
12182;BME280;6154;51.550;12.138;2023-06-14T12:31:40;100646.41;;;31.23;33.54
12182;BME280;6154;51.550;12.138;2023-06-14T12:34:09;100649.06;;;31.50;33.67
12182;BME280;6154;51.550;12.138;2023-06-14T12:36:38;100648.00;;;31.51;33.58
12182;BME280;6154;51.550;12.138;2023-06-14T12:39:13;100649.53;;;31.33;33.34
12182;BME280;6154;51.550;12.138;2023-06-14T12:41:41;100653.78;;;31.23;32.80
12182;BME280;6154;51.550;12.138;2023-06-14T12:44:10;100649.47;;;31.60;33.30
12182;BME280;6154;51.550;12.138;2023-06-14T12:46:38;100645.94;;;31.39;33.39
12182;BME280;6154;51.550;12.138;2023-06-14T12:49:08;100652.03;;;31.41;33.20
12182;BME280;6154;51.550;12.138;2023-06-14T12:51:36;100654.53;;;31.50;33.37
12182;BME280;6154;51.550;12.138;2023-06-14T12:54:05;100655.38;;;31.50;33.05
12182;BME280;6154;51.550;12.138;2023-06-14T12:56:34;100658.81;;;31.19;33.53
12182;BME280;6154;51.550;12.138;2023-06-14T12:59:03;100655.06;;;31.07;33.24
12182;BME280;6154;51.550;12.138;2023-06-14T13:01:33;100652.53;;;30.85;33.31
12182;BME280;6154;51.550;12.138;2023-06-14T13:04:01;100655.88;;;30.48;33.58
12182;BME280;6154;51.550;12.138;2023-06-14T13:06:29;100655.56;;;29.96;33.89
12182;BME280;6154;51.550;12.138;2023-06-14T13:09:00;100650.19;;;29.68;33.72